sensor_id;sensor_type;location;lat;lon;timestamp;pressure;altitude;pressure_sealevel;temperature;humidity
55289;BME280;41154;45.394;5.734;2023-10-09T00:00:12;97845.13;;;9.62;100.00
55289;BME280;41154;45.394;5.734;2023-10-09T00:03:01;97850.78;;;9.72;100.00
55289;BME280;41154;45.394;5.734;2023-10-09T00:05:27;97848.75;;;9.67;100.00
55289;BME280;41154;45.394;5.734;2023-10-09T00:08:15;97849.50;;;9.56;100.00
55289;BME280;41154;45.394;5.734;2023-10-09T00:10:48;97846.69;;;9.51;100.00
55289;BME280;41154;45.394;5.734;2023-10-09T00:13:22;97853.06;;;9.50;100.00
55289;BME280;41154;45.394;5.734;2023-10-09T00:15:56;97850.63;;;9.67;100.00
55289;BME280;41154;45.394;5.734;2023-10-09T00:18:27;97844.47;;;9.66;100.00
55289;BME280;41154;45.394;5.734;2023-10-09T00:20:56;97842.28;;;9.57;100.00
55289;BME280;41154;45.394;5.734;2023-10-09T00:23:29;97849.06;;;9.59;100.00
55289;BME280;41154;45.394;5.734;2023-10-09T00:25:57;97848.84;;;9.61;100.00
55289;BME280;41154;45.394;5.734;2023-10-09T00:28:52;97843.47;;;9.61;100.00
55289;BME280;41154;45.394;5.734;2023-10-09T00:31:19;97842.38;;;9.68;100.00
55289;BME280;41154;45.394;5.734;2023-10-09T00:33:59;97843.19;;;9.69;100.00
55289;BME280;41154;45.394;5.734;2023-10-09T00:36:27;97843.25;;;9.62;100.00
55289;BME280;41154;45.394;5.734;2023-10-09T00:38:54;97843.94;;;9.58;100.00
55289;BME280;41154;45.394;5.734;2023-10-09T00:41:20;97841.84;;;9.41;100.00
55289;BME280;41154;45.394;5.734;2023-10-09T00:43:47;97835.19;;;9.25;100.00
55289;BME280;41154;45.394;5.734;2023-10-09T00:46:17;97836.34;;;9.11;100.00
55289;BME280;41154;45.394;5.734;2023-10-09T00:48:45;97839.03;;;9.11;100.00
55289;BME280;41154;45.394;5.734;2023-10-09T00:51:13;97831.00;;;9.11;100.00
55289;BME280;41154;45.394;5.734;2023-10-09T00:53:48;97841.00;;;9.41;100.00
55289;BME280;41154;45.394;5.734;2023-10-09T00:56:21;97835.50;;;9.35;100.00
55289;BME280;41154;45.394;5.734;2023-10-09T00:58:58;97832.22;;;9.15;100.00
55289;BME280;41154;45.394;5.734;2023-10-09T01:01:41;97830.22;;;9.29;100.00
55289;BME280;41154;45.394;5.734;2023-10-09T01:04:15;97823.25;;;9.03;100.00
55289;BME280;41154;45.394;5.734;2023-10-09T01:06:45;97823.25;;;9.03;100.00
55289;BME280;41154;45.394;5.734;2023-10-09T01:09:14;97825.31;;;9.00;100.00
55289;BME280;41154;45.394;5.734;2023-10-09T01:11:43;97816.19;;;9.08;100.00
55289;BME280;41154;45.394;5.734;2023-10-09T01:14:32;97814.63;;;9.00;100.00
55289;BME280;41154;45.394;5.734;2023-10-09T01:17:06;97809.16;;;9.14;100.00
55289;BME280;41154;45.394;5.734;2023-10-09T01:19:36;97811.78;;;8.95;100.00
55289;BME280;41154;45.394;5.734;2023-10-09T01:22:02;97813.28;;;9.10;100.00
55289;BME280;41154;45.394;5.734;2023-10-09T01:24:41;97814.50;;;9.14;100.00
55289;BME280;41154;45.394;5.734;2023-10-09T01:27:08;97807.22;;;9.03;100.00
55289;BME280;41154;45.394;5.734;2023-10-09T01:29:40;97809.03;;;9.02;100.00
55289;BME280;41154;45.394;5.734;2023-10-09T01:32:08;97814.84;;;8.99;100.00
55289;BME280;41154;45.394;5.734;2023-10-09T01:34:42;97811.28;;;9.05;100.00
55289;BME280;41154;45.394;5.734;2023-10-09T01:37:13;97808.38;;;9.07;100.00
55289;BME280;41154;45.394;5.734;2023-10-09T01:39:50;97808.00;;;9.03;100.00
55289;BME280;41154;45.394;5.734;2023-10-09T01:42:19;97797.97;;;8.98;100.00
55289;BME280;41154;45.394;5.734;2023-10-09T01:44:50;97810.91;;;9.02;100.00
55289;BME280;41154;45.394;5.734;2023-10-09T01:47:18;97809.88;;;9.03;100.00
55289;BME280;41154;45.394;5.734;2023-10-09T01:49:45;97807.78;;;9.05;100.00
55289;BME280;41154;45.394;5.734;2023-10-09T01:52:15;97805.84;;;8.93;100.00
55289;BME280;41154;45.394;5.734;2023-10-09T01:54:51;97811.63;;;8.90;100.00
55289;BME280;41154;45.394;5.734;2023-10-09T01:57:18;97815.63;;;8.81;100.00
55289;BME280;41154;45.394;5.734;2023-10-09T01:59:49;97822.63;;;8.82;100.00
55289;BME280;41154;45.394;5.734;2023-10-09T02:02:16;97801.25;;;8.75;100.00
55289;BME280;41154;45.394;5.734;2023-10-09T02:04:42;97810.13;;;8.76;100.00
55289;BME280;41154;45.394;5.734;2023-10-09T02:07:08;97804.56;;;8.71;100.00
55289;BME280;41154;45.394;5.734;2023-10-09T02:09:35;97802.53;;;8.73;100.00
55289;BME280;41154;45.394;5.734;2023-10-09T02:12:10;97805.84;;;8.93;100.00
55289;BME280;41154;45.394;5.734;2023-10-09T02:14:35;97810.56;;;8.73;100.00
55289;BME280;41154;45.394;5.734;2023-10-09T02:17:07;97811.41;;;8.67;100.00
55289;BME280;41154;45.394;5.734;2023-10-09T02:19:53;97806.66;;;8.69;100.00
55289;BME280;41154;45.394;5.734;2023-10-09T02:22:19;97808.91;;;8.72;100.00
55289;BME280;41154;45.394;5.734;2023-10-09T02:24:46;97808.19;;;8.58;100.00
55289;BME280;41154;45.394;5.734;2023-10-09T02:27:39;97817.34;;;8.37;100.00
55289;BME280;41154;45.394;5.734;2023-10-09T02:30:10;97810.31;;;8.42;100.00
55289;BME280;41154;45.394;5.734;2023-10-09T02:32:45;97810.78;;;8.33;100.00
55289;BME280;41154;45.394;5.734;2023-10-09T02:35:21;97812.16;;;8.49;100.00
55289;BME280;41154;45.394;5.734;2023-10-09T02:38:04;97810.72;;;8.46;100.00
55289;BME280;41154;45.394;5.734;2023-10-09T02:40:36;97814.41;;;8.52;100.00
55289;BME280;41154;45.394;5.734;2023-10-09T02:43:25;97822.78;;;8.62;100.00
55289;BME280;41154;45.394;5.734;2023-10-09T02:45:52;97823.34;;;8.64;100.00
55289;BME280;41154;45.394;5.734;2023-10-09T02:48:18;97816.91;;;8.47;100.00
55289;BME280;41154;45.394;5.734;2023-10-09T02:50:46;97828.66;;;8.39;100.00
55289;BME280;41154;45.394;5.734;2023-10-09T02:53:13;97827.91;;;8.25;100.00
55289;BME280;41154;45.394;5.734;2023-10-09T02:55:45;97823.91;;;8.41;100.00
55289;BME280;41154;45.394;5.734;2023-10-09T02:58:30;97822.38;;;8.20;100.00
55289;BME280;41154;45.394;5.734;2023-10-09T03:00:58;97825.91;;;8.14;100.00
55289;BME280;41154;45.394;5.734;2023-10-09T03:03:25;97828.81;;;8.12;100.00
55289;BME280;41154;45.394;5.734;2023-10-09T03:05:52;97821.56;;;8.19;100.00
55289;BME280;41154;45.394;5.734;2023-10-09T03:08:18;97831.84;;;8.16;100.00
55289;BME280;41154;45.394;5.734;2023-10-09T03:10:45;97821.38;;;8.14;100.00
55289;BME280;41154;45.394;5.734;2023-10-09T03:13:11;97829.41;;;8.14;100.00
55289;BME280;41154;45.394;5.734;2023-10-09T03:15:38;97831.22;;;8.20;100.00
55289;BME280;41154;45.394;5.734;2023-10-09T03:18:04;97825.88;;;8.20;100.00
55289;BME280;41154;45.394;5.734;2023-10-09T03:20:33;97829.22;;;8.09;100.00
55289;BME280;41154;45.394;5.734;2023-10-09T03:22:59;97825.94;;;8.07;100.00
55289;BME280;41154;45.394;5.734;2023-10-09T03:25:27;97832.56;;;7.98;100.00
55289;BME280;41154;45.394;5.734;2023-10-09T03:27:53;97831.78;;;7.90;100.00
55289;BME280;41154;45.394;5.734;2023-10-09T03:30:21;97837.59;;;8.19;100.00
55289;BME280;41154;45.394;5.734;2023-10-09T03:32:52;97832.31;;;8.06;100.00
55289;BME280;41154;45.394;5.734;2023-10-09T03:35:18;97847.25;;;8.20;100.00
55289;BME280;41154;45.394;5.734;2023-10-09T03:37:56;97847.50;;;8.12;100.00
55289;BME280;41154;45.394;5.734;2023-10-09T03:40:41;97836.91;;;7.92;100.00
55289;BME280;41154;45.394;5.734;2023-10-09T03:43:09;97838.56;;;7.86;100.00
55289;BME280;41154;45.394;5.734;2023-10-09T03:45:36;97842.91;;;7.81;100.00
55289;BME280;41154;45.394;5.734;2023-10-09T03:48:05;97840.47;;;7.72;100.00
55289;BME280;41154;45.394;5.734;2023-10-09T03:50:47;97842.50;;;7.84;100.00
55289;BME280;41154;45.394;5.734;2023-10-09T03:53:14;97848.66;;;7.84;100.00
55289;BME280;41154;45.394;5.734;2023-10-09T03:55:40;97845.97;;;7.84;100.00
55289;BME280;41154;45.394;5.734;2023-10-09T03:58:06;97846.13;;;8.03;100.00
55289;BME280;41154;45.394;5.734;2023-10-09T04:00:32;97839.50;;;8.12;100.00
55289;BME280;41154;45.394;5.734;2023-10-09T04:03:06;97842.28;;;7.85;100.00
55289;BME280;41154;45.394;5.734;2023-10-09T04:05:32;97836.00;;;7.60;100.00
55289;BME280;41154;45.394;5.734;2023-10-09T04:07:58;97838.84;;;7.65;100.00
55289;BME280;41154;45.394;5.734;2023-10-09T04:10:27;97841.94;;;7.62;100.00
55289;BME280;41154;45.394;5.734;2023-10-09T04:13:10;97834.72;;;7.69;100.00
55289;BME280;41154;45.394;5.734;2023-10-09T04:15:38;97845.00;;;7.72;100.00
55289;BME280;41154;45.394;5.734;2023-10-09T04:18:07;97835.13;;;7.79;100.00
55289;BME280;41154;45.394;5.734;2023-10-09T04:20:41;97846.19;;;7.83;100.00
55289;BME280;41154;45.394;5.734;2023-10-09T04:23:20;97845.16;;;7.77;100.00
55289;BME280;41154;45.394;5.734;2023-10-09T04:26:01;97840.53;;;7.59;100.00
55289;BME280;41154;45.394;5.734;2023-10-09T04:28:37;97840.75;;;7.44;100.00
55289;BME280;41154;45.394;5.734;2023-10-09T04:31:03;97840.16;;;7.42;100.00
55289;BME280;41154;45.394;5.734;2023-10-09T04:33:31;97844.69;;;7.28;100.00
55289;BME280;41154;45.394;5.734;2023-10-09T04:36:07;97841.00;;;7.16;100.00
55289;BME280;41154;45.394;5.734;2023-10-09T04:38:54;97844.72;;;7.22;100.00
55289;BME280;41154;45.394;5.734;2023-10-09T04:41:32;97841.00;;;7.29;100.00
55289;BME280;41154;45.394;5.734;2023-10-09T04:44:19;97842.88;;;7.15;100.00
55289;BME280;41154;45.394;5.734;2023-10-09T04:46:46;97839.38;;;7.15;100.00
55289;BME280;41154;45.394;5.734;2023-10-09T04:49:33;97846.75;;;7.13;100.00
55289;BME280;41154;45.394;5.734;2023-10-09T04:52:19;97836.50;;;7.16;100.00
55289;BME280;41154;45.394;5.734;2023-10-09T04:55:06;97838.13;;;7.24;100.00
55289;BME280;41154;45.394;5.734;2023-10-09T04:57:41;97837.91;;;7.26;100.00
55289;BME280;41154;45.394;5.734;2023-10-09T05:03:01;97850.03;;;7.28;100.00
55289;BME280;41154;45.394;5.734;2023-10-09T05:05:36;97840.16;;;7.29;100.00
55289;BME280;41154;45.394;5.734;2023-10-09T05:08:10;97848.41;;;7.20;100.00
55289;BME280;41154;45.394;5.734;2023-10-09T05:10:48;97850.84;;;7.22;100.00
55289;BME280;41154;45.394;5.734;2023-10-09T05:13:23;97851.69;;;7.29;100.00
55289;BME280;41154;45.394;5.734;2023-10-09T05:16:05;97853.72;;;7.34;100.00
55289;BME280;41154;45.394;5.734;2023-10-09T05:18:31;97853.53;;;7.35;100.00
55289;BME280;41154;45.394;5.734;2023-10-09T05:21:05;97859.91;;;7.28;100.00
55289;BME280;41154;45.394;5.734;2023-10-09T05:23:50;97860.31;;;7.25;100.00
55289;BME280;41154;45.394;5.734;2023-10-09T05:26:36;97859.91;;;7.28;100.00
55289;BME280;41154;45.394;5.734;2023-10-09T05:29:19;97859.47;;;7.17;100.00
55289;BME280;41154;45.394;5.734;2023-10-09T05:31:49;97843.69;;;7.09;100.00
55289;BME280;41154;45.394;5.734;2023-10-09T05:34:29;97851.50;;;7.11;100.00
55289;BME280;41154;45.394;5.734;2023-10-09T05:37:13;97855.38;;;7.22;100.00
55289;BME280;41154;45.394;5.734;2023-10-09T05:39:46;97853.72;;;7.27;100.00
55289;BME280;41154;45.394;5.734;2023-10-09T05:42:33;97849.81;;;7.36;100.00
55289;BME280;41154;45.394;5.734;2023-10-09T05:45:03;97847.97;;;7.30;100.00
55289;BME280;41154;45.394;5.734;2023-10-09T05:47:51;97850.88;;;7.15;100.00
55289;BME280;41154;45.394;5.734;2023-10-09T05:50:53;97847.97;;;7.24;100.00
55289;BME280;41154;45.394;5.734;2023-10-09T05:53:33;97859.69;;;7.29;100.00
55289;BME280;41154;45.394;5.734;2023-10-09T05:56:11;97845.91;;;7.26;100.00
55289;BME280;41154;45.394;5.734;2023-10-09T05:58:55;97849.63;;;7.31;100.00
55289;BME280;41154;45.394;5.734;2023-10-09T06:01:40;97852.88;;;7.40;100.00
55289;BME280;41154;45.394;5.734;2023-10-09T06:04:25;97853.28;;;7.44;100.00
55289;BME280;41154;45.394;5.734;2023-10-09T06:07:11;97852.66;;;7.42;100.00
55289;BME280;41154;45.394;5.734;2023-10-09T06:09:38;97857.81;;;7.30;100.00
55289;BME280;41154;45.394;5.734;2023-10-09T06:12:19;97858.84;;;7.29;100.00
55289;BME280;41154;45.394;5.734;2023-10-09T06:14:57;97858.63;;;7.30;100.00
55289;BME280;41154;45.394;5.734;2023-10-09T06:17:23;97864.16;;;7.49;100.00
55289;BME280;41154;45.394;5.734;2023-10-09T06:19:50;97858.78;;;7.55;100.00
55289;BME280;41154;45.394;5.734;2023-10-09T06:22:24;97861.91;;;7.46;100.00
55289;BME280;41154;45.394;5.734;2023-10-09T06:24:50;97859.47;;;7.31;100.00
55289;BME280;41154;45.394;5.734;2023-10-09T06:27:15;97861.47;;;7.49;100.00
55289;BME280;41154;45.394;5.734;2023-10-09T06:30:01;97863.72;;;7.59;100.00
55289;BME280;41154;45.394;5.734;2023-10-09T06:32:39;97874.56;;;7.77;100.00
55289;BME280;41154;45.394;5.734;2023-10-09T06:35:20;97871.59;;;7.99;100.00
55289;BME280;41154;45.394;5.734;2023-10-09T06:37:56;97872.06;;;7.89;100.00
55289;BME280;41154;45.394;5.734;2023-10-09T06:40:31;97872.00;;;8.02;100.00
55289;BME280;41154;45.394;5.734;2023-10-09T06:43:16;97874.13;;;7.80;100.00
55289;BME280;41154;45.394;5.734;2023-10-09T06:45:43;97869.41;;;7.82;100.00
55289;BME280;41154;45.394;5.734;2023-10-09T06:48:21;97870.84;;;7.78;100.00
55289;BME280;41154;45.394;5.734;2023-10-09T06:51:16;97870.00;;;7.91;100.00
55289;BME280;41154;45.394;5.734;2023-10-09T06:53:55;97867.88;;;8.06;100.00
55289;BME280;41154;45.394;5.734;2023-10-09T06:56:24;97876.28;;;8.10;100.00
55289;BME280;41154;45.394;5.734;2023-10-09T06:58:56;97882.59;;;8.22;100.00
55289;BME280;41154;45.394;5.734;2023-10-09T07:01:26;97882.47;;;8.10;100.00
55289;BME280;41154;45.394;5.734;2023-10-09T07:04:05;97890.50;;;7.97;100.00
55289;BME280;41154;45.394;5.734;2023-10-09T07:06:49;97894.59;;;8.06;100.00
55289;BME280;41154;45.394;5.734;2023-10-09T07:09:17;97900.09;;;8.18;100.00
55289;BME280;41154;45.394;5.734;2023-10-09T07:11:46;97896.38;;;8.26;100.00
55289;BME280;41154;45.394;5.734;2023-10-09T07:14:17;97897.00;;;8.21;100.00
55289;BME280;41154;45.394;5.734;2023-10-09T07:16:56;97895.75;;;8.24;100.00
55289;BME280;41154;45.394;5.734;2023-10-09T07:19:31;97898.16;;;8.39;100.00
55289;BME280;41154;45.394;5.734;2023-10-09T07:22:03;97903.88;;;8.49;100.00
55289;BME280;41154;45.394;5.734;2023-10-09T07:24:30;97911.09;;;8.42;100.00
55289;BME280;41154;45.394;5.734;2023-10-09T07:27:20;97902.25;;;8.48;100.00
55289;BME280;41154;45.394;5.734;2023-10-09T07:30:07;97904.19;;;8.66;100.00
55289;BME280;41154;45.394;5.734;2023-10-09T07:32:57;97908.34;;;8.62;100.00
55289;BME280;41154;45.394;5.734;2023-10-09T07:38:13;97905.56;;;9.07;100.00
55289;BME280;41154;45.394;5.734;2023-10-09T07:40:43;97914.19;;;12.36;100.00
55289;BME280;41154;45.394;5.734;2023-10-09T07:43:23;97927.38;;;13.97;100.00
55289;BME280;41154;45.394;5.734;2023-10-09T07:45:53;97917.91;;;15.16;100.00
55289;BME280;41154;45.394;5.734;2023-10-09T07:48:25;97926.50;;;17.40;100.00
55289;BME280;41154;45.394;5.734;2023-10-09T07:50:51;97918.78;;;16.60;100.00
55289;BME280;41154;45.394;5.734;2023-10-09T07:53:23;97918.66;;;17.23;100.00
55289;BME280;41154;45.394;5.734;2023-10-09T07:55:52;97920.00;;;17.72;100.00
55289;BME280;41154;45.394;5.734;2023-10-09T07:58:24;97918.63;;;19.10;91.58
55289;BME280;41154;45.394;5.734;2023-10-09T08:00:57;97915.28;;;20.11;84.61
55289;BME280;41154;45.394;5.734;2023-10-09T08:03:36;97911.91;;;20.87;80.24
55289;BME280;41154;45.394;5.734;2023-10-09T08:06:02;97909.88;;;18.74;93.03
55289;BME280;41154;45.394;5.734;2023-10-09T08:08:54;97907.81;;;18.50;100.00
55289;BME280;41154;45.394;5.734;2023-10-09T08:11:45;97905.75;;;19.21;93.34
55289;BME280;41154;45.394;5.734;2023-10-09T08:14:13;97915.66;;;19.07;95.02
55289;BME280;41154;45.394;5.734;2023-10-09T08:17:06;97905.88;;;18.61;96.71
55289;BME280;41154;45.394;5.734;2023-10-09T08:19:49;97915.47;;;18.93;96.48
55289;BME280;41154;45.394;5.734;2023-10-09T08:22:25;97911.38;;;20.42;90.52
55289;BME280;41154;45.394;5.734;2023-10-09T08:24:51;97908.03;;;19.78;96.64
55289;BME280;41154;45.394;5.734;2023-10-09T08:27:27;97900.66;;;20.02;96.25
55289;BME280;41154;45.394;5.734;2023-10-09T08:30:14;97902.00;;;20.05;93.63
55289;BME280;41154;45.394;5.734;2023-10-09T08:32:52;97906.94;;;20.27;92.93
55289;BME280;41154;45.394;5.734;2023-10-09T08:35:37;97898.41;;;23.01;78.86
55289;BME280;41154;45.394;5.734;2023-10-09T08:38:17;97896.75;;;23.59;77.66
55289;BME280;41154;45.394;5.734;2023-10-09T08:41:26;97904.28;;;22.57;78.42
55289;BME280;41154;45.394;5.734;2023-10-09T08:43:56;97898.06;;;21.35;86.24
55289;BME280;41154;45.394;5.734;2023-10-09T08:46:32;97898.41;;;20.96;86.34
55289;BME280;41154;45.394;5.734;2023-10-09T08:48:59;97896.59;;;20.91;87.46
55289;BME280;41154;45.394;5.734;2023-10-09T08:51:26;97895.75;;;20.91;91.24
55289;BME280;41154;45.394;5.734;2023-10-09T08:53:53;97896.72;;;19.89;95.53
55289;BME280;41154;45.394;5.734;2023-10-09T08:56:21;97894.97;;;19.11;100.00
55289;BME280;41154;45.394;5.734;2023-10-09T08:58:57;97893.44;;;19.34;100.00
55289;BME280;41154;45.394;5.734;2023-10-09T09:01:23;97886.81;;;19.11;100.00
55289;BME280;41154;45.394;5.734;2023-10-09T09:03:51;97890.34;;;19.11;100.00
55289;BME280;41154;45.394;5.734;2023-10-09T09:06:18;97887.78;;;18.91;100.00
55289;BME280;41154;45.394;5.734;2023-10-09T09:08:45;97885.38;;;18.79;100.00
55289;BME280;41154;45.394;5.734;2023-10-09T09:11:16;97890.53;;;18.25;100.00
55289;BME280;41154;45.394;5.734;2023-10-09T09:13:45;97885.25;;;18.55;100.00
55289;BME280;41154;45.394;5.734;2023-10-09T09:16:16;97894.25;;;18.45;100.00
55289;BME280;41154;45.394;5.734;2023-10-09T09:18:57;97887.75;;;18.41;100.00
55289;BME280;41154;45.394;5.734;2023-10-09T09:21:31;97882.53;;;18.55;100.00
55289;BME280;41154;45.394;5.734;2023-10-09T09:24:05;97888.63;;;18.86;100.00
55289;BME280;41154;45.394;5.734;2023-10-09T09:26:50;97876.66;;;18.82;100.00
55289;BME280;41154;45.394;5.734;2023-10-09T09:32:03;97882.34;;;18.91;100.00
55289;BME280;41154;45.394;5.734;2023-10-09T09:34:49;97879.38;;;18.87;100.00
55289;BME280;41154;45.394;5.734;2023-10-09T09:37:20;97870.22;;;19.12;100.00
55289;BME280;41154;45.394;5.734;2023-10-09T09:39:47;97875.16;;;19.05;100.00
55289;BME280;41154;45.394;5.734;2023-10-09T09:42:18;97867.41;;;18.88;100.00
55289;BME280;41154;45.394;5.734;2023-10-09T09:44:51;97871.22;;;19.51;100.00
55289;BME280;41154;45.394;5.734;2023-10-09T09:47:16;97880.91;;;19.33;100.00
55289;BME280;41154;45.394;5.734;2023-10-09T09:49:50;97874.53;;;19.13;100.00
55289;BME280;41154;45.394;5.734;2023-10-09T09:52:18;97860.94;;;19.13;100.00
55289;BME280;41154;45.394;5.734;2023-10-09T09:54:47;97866.84;;;18.91;100.00
55289;BME280;41154;45.394;5.734;2023-10-09T09:57:16;97866.78;;;18.96;100.00
55289;BME280;41154;45.394;5.734;2023-10-09T09:59:53;97866.25;;;19.58;100.00
55289;BME280;41154;45.394;5.734;2023-10-09T10:02:27;97866.63;;;19.75;100.00
55289;BME280;41154;45.394;5.734;2023-10-09T10:04:57;97868.03;;;19.44;100.00
55289;BME280;41154;45.394;5.734;2023-10-09T10:07:25;97859.09;;;19.67;100.00
55289;BME280;41154;45.394;5.734;2023-10-09T10:09:54;97862.59;;;19.73;100.00
55289;BME280;41154;45.394;5.734;2023-10-09T10:16:04;97857.34;;;19.82;100.00
55289;BME280;41154;45.394;5.734;2023-10-09T10:18:59;97857.59;;;19.85;100.00
55289;BME280;41154;45.394;5.734;2023-10-09T10:21:37;97850.91;;;19.97;100.00
55289;BME280;41154;45.394;5.734;2023-10-09T10:39:54;97836.56;;;20.72;100.00
55289;BME280;41154;45.394;5.734;2023-10-09T10:43:04;97825.97;;;20.90;98.60
55289;BME280;41154;45.394;5.734;2023-10-09T10:45:39;97828.00;;;20.98;95.13
55289;BME280;41154;45.394;5.734;2023-10-09T10:48:11;97825.81;;;20.81;97.05
55289;BME280;41154;45.394;5.734;2023-10-09T10:51:34;97831.47;;;20.85;98.41
55289;BME280;41154;45.394;5.734;2023-10-09T10:54:04;97825.53;;;20.82;100.00
55289;BME280;41154;45.394;5.734;2023-10-09T10:57:21;97824.78;;;20.58;97.88
55289;BME280;41154;45.394;5.734;2023-10-09T11:00:11;97815.13;;;20.85;98.69
55289;BME280;41154;45.394;5.734;2023-10-09T11:02:55;97812.94;;;20.87;99.82
55289;BME280;41154;45.394;5.734;2023-10-09T11:05:41;97811.59;;;21.17;94.26
55289;BME280;41154;45.394;5.734;2023-10-09T11:08:10;97814.13;;;21.13;89.64
55289;BME280;41154;45.394;5.734;2023-10-09T11:10:37;97811.69;;;21.12;89.65
55289;BME280;41154;45.394;5.734;2023-10-09T11:13:25;97806.19;;;21.31;88.99
55289;BME280;41154;45.394;5.734;2023-10-09T11:16:04;97804.53;;;21.30;84.30
55289;BME280;41154;45.394;5.734;2023-10-09T11:18:54;97796.47;;;21.25;84.71
55289;BME280;41154;45.394;5.734;2023-10-09T11:21:23;97794.47;;;21.30;84.45
55289;BME280;41154;45.394;5.734;2023-10-09T11:23:57;97796.34;;;21.49;86.52
55289;BME280;41154;45.394;5.734;2023-10-09T11:26:25;97794.72;;;21.62;89.10
55289;BME280;41154;45.394;5.734;2023-10-09T11:29:11;97788.13;;;21.90;86.01
55289;BME280;41154;45.394;5.734;2023-10-09T11:31:41;97780.59;;;22.24;89.19
55289;BME280;41154;45.394;5.734;2023-10-09T11:34:20;97788.22;;;22.13;83.68
55289;BME280;41154;45.394;5.734;2023-10-09T11:36:59;97784.78;;;21.94;86.81
55289;BME280;41154;45.394;5.734;2023-10-09T11:39:28;97781.88;;;21.90;85.92
55289;BME280;41154;45.394;5.734;2023-10-09T11:42:08;97775.78;;;21.93;92.02
55289;BME280;41154;45.394;5.734;2023-10-09T11:44:41;97767.41;;;21.89;87.76
55289;BME280;41154;45.394;5.734;2023-10-09T11:47:11;97760.13;;;21.71;88.03
55289;BME280;41154;45.394;5.734;2023-10-09T11:49:51;97769.72;;;21.54;90.75
55289;BME280;41154;45.394;5.734;2023-10-09T11:52:29;97758.31;;;21.66;91.87
55289;BME280;41154;45.394;5.734;2023-10-09T11:55:07;97757.91;;;21.73;85.63
55289;BME280;41154;45.394;5.734;2023-10-09T11:57:40;97749.59;;;21.78;86.50
55289;BME280;41154;45.394;5.734;2023-10-09T12:00:07;97756.06;;;21.82;84.17
55289;BME280;41154;45.394;5.734;2023-10-09T12:02:49;97744.84;;;21.98;84.93
55289;BME280;41154;45.394;5.734;2023-10-09T12:05:15;97744.66;;;21.94;86.55
55289;BME280;41154;45.394;5.734;2023-10-09T12:07:47;97742.50;;;22.05;86.12
55289;BME280;41154;45.394;5.734;2023-10-09T12:10:19;97731.59;;;22.27;82.48
55289;BME280;41154;45.394;5.734;2023-10-09T12:12:51;97731.09;;;22.25;82.21
55289;BME280;41154;45.394;5.734;2023-10-09T12:15:17;97728.78;;;22.33;82.10
55289;BME280;41154;45.394;5.734;2023-10-09T12:17:46;97728.06;;;22.41;83.09
55289;BME280;41154;45.394;5.734;2023-10-09T12:20:16;97713.00;;;22.52;80.56
55289;BME280;41154;45.394;5.734;2023-10-09T12:23:04;97717.59;;;22.66;77.75
55289;BME280;41154;45.394;5.734;2023-10-09T12:25:32;97706.75;;;22.52;80.19
55289;BME280;41154;45.394;5.734;2023-10-09T12:28:01;97717.69;;;22.52;80.45
55289;BME280;41154;45.394;5.734;2023-10-09T12:30:31;97702.16;;;22.61;82.60
55289;BME280;41154;45.394;5.734;2023-10-09T12:33:04;97705.06;;;22.96;83.07
55289;BME280;41154;45.394;5.734;2023-10-09T12:35:36;97702.44;;;23.13;82.45
55289;BME280;41154;45.394;5.734;2023-10-09T12:38:02;97699.44;;;23.24;80.69
55289;BME280;41154;45.394;5.734;2023-10-09T12:40:28;97702.97;;;23.15;80.60
55289;BME280;41154;45.394;5.734;2023-10-09T12:42:57;97699.47;;;23.01;81.40
55289;BME280;41154;45.394;5.734;2023-10-09T12:45:26;97689.44;;;22.88;81.82
55289;BME280;41154;45.394;5.734;2023-10-09T12:47:56;97687.88;;;23.04;79.89
55289;BME280;41154;45.394;5.734;2023-10-09T12:50:28;97687.34;;;23.16;80.82
55289;BME280;41154;45.394;5.734;2023-10-09T12:52:56;97680.69;;;23.57;79.97
55289;BME280;41154;45.394;5.734;2023-10-09T12:55:22;97685.75;;;23.81;76.79
55289;BME280;41154;45.394;5.734;2023-10-09T12:58:01;97685.84;;;23.50;80.36
55289;BME280;41154;45.394;5.734;2023-10-09T13:00:34;97680.59;;;23.22;81.13
55289;BME280;41154;45.394;5.734;2023-10-09T13:03:04;97674.88;;;23.41;81.11
55289;BME280;41154;45.394;5.734;2023-10-09T13:08:28;97673.78;;;23.60;83.89
55289;BME280;41154;45.394;5.734;2023-10-09T13:11:05;97661.47;;;23.31;81.84
55289;BME280;41154;45.394;5.734;2023-10-09T13:13:39;97670.25;;;23.59;82.14
55289;BME280;41154;45.394;5.734;2023-10-09T13:16:10;97664.03;;;24.02;81.26
55289;BME280;41154;45.394;5.734;2023-10-09T13:18:38;97663.88;;;23.90;82.15
55289;BME280;41154;45.394;5.734;2023-10-09T13:21:04;97664.22;;;24.06;83.11
55289;BME280;41154;45.394;5.734;2023-10-09T13:23:31;97656.06;;;23.48;83.17
55289;BME280;41154;45.394;5.734;2023-10-09T13:26:07;97656.22;;;23.52;81.35
55289;BME280;41154;45.394;5.734;2023-10-09T13:29:05;97656.38;;;23.56;83.75
55289;BME280;41154;45.394;5.734;2023-10-09T13:31:35;97653.03;;;23.67;81.79
55289;BME280;41154;45.394;5.734;2023-10-09T13:34:04;97653.72;;;23.99;81.06
55289;BME280;41154;45.394;5.734;2023-10-09T13:36:36;97651.28;;;23.98;79.00
55289;BME280;41154;45.394;5.734;2023-10-09T13:39:08;97651.31;;;23.89;78.84
55289;BME280;41154;45.394;5.734;2023-10-09T13:41:54;97645.69;;;24.03;77.60
55289;BME280;41154;45.394;5.734;2023-10-09T13:44:28;97640.53;;;24.01;76.66
55289;BME280;41154;45.394;5.734;2023-10-09T13:46:54;97636.97;;;23.92;76.03
55289;BME280;41154;45.394;5.734;2023-10-09T13:49:20;97633.09;;;23.93;76.93
55289;BME280;41154;45.394;5.734;2023-10-09T13:51:49;97629.53;;;23.84;77.30
55289;BME280;41154;45.394;5.734;2023-10-09T13:54:16;97616.66;;;23.84;78.62
55289;BME280;41154;45.394;5.734;2023-10-09T13:57:06;97622.09;;;23.76;77.12
55289;BME280;41154;45.394;5.734;2023-10-09T13:59:34;97617.41;;;23.50;79.45
55289;BME280;41154;45.394;5.734;2023-10-09T14:02:08;97611.09;;;23.41;79.86
55289;BME280;41154;45.394;5.734;2023-10-09T14:04:43;97612.41;;;23.52;80.75
55289;BME280;41154;45.394;5.734;2023-10-09T14:07:09;97608.72;;;23.57;80.82